createdAt,value
2019-04-10T00:00:51.280Z,13.50
2019-04-10T00:01:27.844Z,14.78
2019-04-10T00:02:01.415Z,12.75
2019-04-10T00:02:34.088Z,13.88
2019-04-10T00:03:06.614Z,13.55
2019-04-10T00:03:41.990Z,20.17
2019-04-10T00:04:14.628Z,13.00
2019-04-10T00:04:47.430Z,18.67
2019-04-10T00:05:20.073Z,12.37
2019-04-10T00:05:53.302Z,14.53
2019-04-10T00:06:25.852Z,11.90
2019-04-10T00:07:09.301Z,15.25
2019-04-10T00:07:33.230Z,15.20
2019-04-10T00:08:06.256Z,14.68
2019-04-10T00:08:38.849Z,16.00
2019-04-10T00:09:11.398Z,13.62
2019-04-10T00:09:45.342Z,12.65
2019-04-10T00:10:18.088Z,13.53
2019-04-10T00:10:52.207Z,14.43
2019-04-10T00:11:25.086Z,12.20
2019-04-10T00:11:57.635Z,16.25
2019-04-10T00:12:31.764Z,10.63
2019-04-10T00:13:05.202Z,15.13
2019-04-10T00:13:38.542Z,12.58
2019-04-10T00:14:12.269Z,15.75
2019-04-10T00:14:45.046Z,22.32
2019-04-10T00:15:18.413Z,15.90
2019-04-10T00:15:51.366Z,13.40
2019-04-10T00:16:24.486Z,14.30
2019-04-10T00:16:57.149Z,17.45
2019-04-10T00:17:31.118Z,13.78
2019-04-10T00:18:03.782Z,23.57
2019-04-10T00:18:37.947Z,12.90
2019-04-10T00:19:10.688Z,13.32
2019-04-10T00:19:43.673Z,15.40
2019-04-10T00:20:16.360Z,15.25
2019-04-10T00:20:49.146Z,16.10
2019-04-10T00:21:22.965Z,16.40
2019-04-10T00:21:55.922Z,12.45
2019-04-10T00:22:28.509Z,15.25
2019-04-10T00:23:01.090Z,16.23
2019-04-10T00:23:33.627Z,13.90
2019-04-10T00:24:06.199Z,12.55
2019-04-10T00:24:38.718Z,14.00
2019-04-10T00:25:11.346Z,13.95
2019-04-10T00:25:45.254Z,11.90
2019-04-10T00:26:18.582Z,17.02
2019-04-10T00:26:52.209Z,13.20
2019-04-10T00:27:26.237Z,22.02
2019-04-10T00:27:59.021Z,16.00
2019-04-10T00:28:31.795Z,13.83
2019-04-10T00:29:04.419Z,16.20
2019-04-10T00:29:36.983Z,19.27
2019-04-10T00:30:09.719Z,14.15
2019-04-10T00:30:43.065Z,15.18
2019-04-10T00:31:15.823Z,14.03
2019-04-10T00:31:48.751Z,15.00
2019-04-10T00:32:21.662Z,23.02
2019-04-10T00:32:54.470Z,19.50
2019-04-10T00:33:27.397Z,14.58
2019-04-10T00:34:00.835Z,15.03
2019-04-10T00:34:33.953Z,14.28
2019-04-10T00:35:06.619Z,16.25
2019-04-10T00:35:39.376Z,16.80
2019-04-10T00:36:12.402Z,16.17
2019-04-10T00:36:45.636Z,17.65
2019-04-10T00:37:23.636Z,18.95
2019-04-10T00:37:53.415Z,12.58
2019-04-10T00:38:26.399Z,15.20
2019-04-10T00:38:59.308Z,17.40
2019-04-10T00:39:32.854Z,16.95
2019-04-10T00:40:06.813Z,17.30
2019-04-10T00:40:39.854Z,16.10
2019-04-10T00:41:12.403Z,17.55
2019-04-10T00:41:44.941Z,15.93
2019-04-10T00:42:17.492Z,14.78
2019-04-10T00:42:50.019Z,13.83
2019-04-10T00:43:22.656Z,14.10
2019-04-10T00:43:55.374Z,17.32
2019-04-10T00:44:27.951Z,17.25
2019-04-10T00:45:00.472Z,11.97
2019-04-10T00:45:33.465Z,13.70
2019-04-10T00:46:06.225Z,14.15
2019-04-10T00:46:38.826Z,12.93
2019-04-10T00:47:12.802Z,14.45
2019-04-10T00:47:45.798Z,14.93
2019-04-10T00:48:19.557Z,15.75
2019-04-10T00:48:52.586Z,17.40
2019-04-10T00:49:26.016Z,14.87
2019-04-10T00:49:59.342Z,15.83
2019-04-10T00:50:32.774Z,12.37
2019-04-10T00:51:05.333Z,14.50
2019-04-10T00:51:39.462Z,17.60
2019-04-10T00:52:12.151Z,15.88
2019-04-10T00:52:46.180Z,15.03
2019-04-10T00:53:19.076Z,15.18
2019-04-10T00:53:51.752Z,14.05
2019-04-10T00:54:25.742Z,14.20
2019-04-10T00:54:59.390Z,13.53
2019-04-10T00:55:32.173Z,15.98
2019-04-10T00:56:05.175Z,16.62
2019-04-10T00:56:38.938Z,15.53
2019-04-10T00:57:11.557Z,16.23
2019-04-10T00:57:44.211Z,16.10
2019-04-10T00:58:16.734Z,16.02
2019-04-10T00:58:49.667Z,15.38
2019-04-10T00:59:22.585Z,17.35
2019-04-10T00:59:55.130Z,16.60
2019-04-10T01:00:28.705Z,15.50
2019-04-10T01:01:01.668Z,17.50
2019-04-10T01:01:34.206Z,15.20
2019-04-10T01:02:07.984Z,13.35
2019-04-10T01:02:40.812Z,14.65
2019-04-10T01:03:33.709Z,15.88
2019-04-10T01:04:06.868Z,11.63
2019-04-10T01:04:39.583Z,13.83
2019-04-10T01:05:13.141Z,14.13
2019-04-10T01:05:45.615Z,12.25
2019-04-10T01:06:18.563Z,14.75
2019-04-10T01:06:51.034Z,16.45
2019-04-10T01:07:33.746Z,12.80
2019-04-10T01:07:58.419Z,16.42
2019-04-10T01:08:31.360Z,17.70
2019-04-10T01:09:07.184Z,15.65
2019-04-10T01:09:39.752Z,15.38
2019-04-10T01:10:12.591Z,16.20
2019-04-10T01:10:46.242Z,16.85
2019-04-10T01:11:19.025Z,16.25
2019-04-10T01:11:51.738Z,15.75
2019-04-10T01:12:24.251Z,17.90
2019-04-10T01:12:56.781Z,19.37
2019-04-10T01:13:29.672Z,17.17
2019-04-10T01:14:02.339Z,21.75
2019-04-10T01:14:35.879Z,15.03
2019-04-10T01:15:09.962Z,13.62
2019-04-10T01:15:42.734Z,17.87
2019-04-10T01:16:16.419Z,16.32
2019-04-10T01:16:49.475Z,14.85
2019-04-10T01:17:22.326Z,14.68
2019-04-10T01:17:54.845Z,17.10
2019-04-10T01:18:28.946Z,15.15
2019-04-10T01:19:02.216Z,16.73
2019-04-10T01:19:34.742Z,14.33
2019-04-10T01:20:07.497Z,13.13
2019-04-10T01:20:40.017Z,16.37
2019-04-10T01:21:12.747Z,26.20
2019-04-10T01:21:46.439Z,11.73
2019-04-10T01:22:19.115Z,13.43
2019-04-10T01:22:52.401Z,18.50
2019-04-10T01:23:24.922Z,15.03
2019-04-10T01:23:57.834Z,15.25
2019-04-10T01:24:30.391Z,16.75
2019-04-10T01:25:03.211Z,14.47
2019-04-10T01:25:36.665Z,13.15
2019-04-10T01:26:10.681Z,13.72
2019-04-10T01:26:43.367Z,15.78
2019-04-10T01:27:15.996Z,17.85
2019-04-10T01:27:50.050Z,14.98
2019-04-10T01:28:22.781Z,17.37
2019-04-10T01:28:55.643Z,16.23
2019-04-10T01:29:29.229Z,17.07
2019-04-10T01:30:02.399Z,14.05
2019-04-10T01:30:35.015Z,15.43
2019-04-10T01:31:07.917Z,18.02
2019-04-10T01:31:41.436Z,20.20
2019-04-10T01:32:15.299Z,12.55
2019-04-10T01:32:48.827Z,13.22
2019-04-10T01:33:22.754Z,14.20
2019-04-10T01:33:56.820Z,11.93
2019-04-10T01:34:29.595Z,14.85
2019-04-10T01:35:02.611Z,13.62
2019-04-10T01:35:35.308Z,17.55
2019-04-10T01:36:08.861Z,16.87
2019-04-10T01:36:41.547Z,13.88
2019-04-10T01:37:14.167Z,13.68
2019-04-10T01:37:53.571Z,13.28
2019-04-10T01:38:21.812Z,17.15
2019-04-10T01:38:54.878Z,17.98
2019-04-10T01:39:30.303Z,18.27
2019-04-10T01:40:04.505Z,21.35
2019-04-10T01:40:37.339Z,15.70
2019-04-10T01:41:09.976Z,19.10
2019-04-10T01:41:42.518Z,11.68
2019-04-10T01:42:15.051Z,14.15
2019-04-10T01:42:59.922Z,18.60
2019-04-10T01:43:22.509Z,15.43
2019-04-10T01:43:55.555Z,17.20
2019-04-10T01:44:28.894Z,17.90
2019-04-10T01:45:02.888Z,17.23
2019-04-10T01:45:35.698Z,18.15
2019-04-10T01:46:08.416Z,18.62
2019-04-10T01:46:42.321Z,16.80
2019-04-10T01:47:15.229Z,16.17
2019-04-10T01:47:47.866Z,16.25
2019-04-10T01:48:20.411Z,22.10
2019-04-10T01:48:53.911Z,13.13
2019-04-10T01:49:26.509Z,14.98
2019-04-10T01:49:59.447Z,17.37
2019-04-10T01:50:34.754Z,20.97
2019-04-10T01:51:07.501Z,18.42
2019-04-10T01:51:41.367Z,18.23
2019-04-10T01:52:15.067Z,14.93
2019-04-10T01:52:47.598Z,15.38
2019-04-10T01:53:20.143Z,15.43
2019-04-10T01:53:53.007Z,19.45
2019-04-10T01:54:25.651Z,13.48
2019-04-10T01:54:59.627Z,14.78
2019-04-10T01:55:34.094Z,13.45
2019-04-10T01:56:20.401Z,18.82
2019-04-10T01:56:41.884Z,14.33
2019-04-10T01:57:14.695Z,22.22
2019-04-10T01:57:48.350Z,14.35
2019-04-10T01:58:25.365Z,16.05
2019-04-10T01:58:58.018Z,14.23
2019-04-10T01:59:32.726Z,21.68
2019-04-10T02:00:06.779Z,19.82
2019-04-10T02:00:43.583Z,16.93
2019-04-10T02:01:20.691Z,14.90
2019-04-10T02:02:14.809Z,17.23
2019-04-10T02:02:51.775Z,18.15
2019-04-10T02:03:25.719Z,16.20
2019-04-10T02:03:58.718Z,16.50
2019-04-10T02:04:31.250Z,24.82
2019-04-10T02:05:04.676Z,21.00
2019-04-10T02:05:37.211Z,22.50
2019-04-10T02:06:09.875Z,17.67
2019-04-10T02:06:43.260Z,19.37
2019-04-10T02:07:16.165Z,18.95
2019-04-10T02:08:01.323Z,15.98
2019-04-10T02:08:23.625Z,15.65
2019-04-10T02:08:56.614Z,16.55
2019-04-10T02:09:29.752Z,14.60
2019-04-10T02:10:03.595Z,19.10
2019-04-10T02:10:36.465Z,13.58
2019-04-10T02:11:08.987Z,16.93
2019-04-10T02:11:42.994Z,15.90
2019-04-10T02:12:16.666Z,20.00
2019-04-10T02:12:50.680Z,15.13
2019-04-10T02:13:23.471Z,15.78
2019-04-10T02:13:58.135Z,17.82
2019-04-10T02:14:31.944Z,16.23
2019-04-10T02:15:05.397Z,15.58
2019-04-10T02:15:38.468Z,17.73
2019-04-10T02:16:11.441Z,17.73
2019-04-10T02:16:43.954Z,16.02
2019-04-10T02:17:16.788Z,14.13
2019-04-10T02:17:49.771Z,15.93
2019-04-10T02:18:23.432Z,12.18
2019-04-10T02:18:56.150Z,19.57
2019-04-10T02:19:30.153Z,17.80
2019-04-10T02:20:03.655Z,15.15
2019-04-10T02:20:36.773Z,15.35
2019-04-10T02:21:09.703Z,14.58
2019-04-10T02:21:42.262Z,15.60
2019-04-10T02:22:14.809Z,13.40
2019-04-10T02:22:48.003Z,15.95
2019-04-10T02:23:21.036Z,17.00
2019-04-10T02:23:54.492Z,15.65
2019-04-10T02:24:27.286Z,14.53
2019-04-10T02:24:59.992Z,16.82
2019-04-10T02:25:33.151Z,15.38
2019-04-10T02:26:06.114Z,18.80
2019-04-10T02:26:38.661Z,15.93
2019-04-10T02:27:11.216Z,17.05
2019-04-10T02:27:44.642Z,17.95
2019-04-10T02:28:17.322Z,17.40
2019-04-10T02:28:49.906Z,16.82
2019-04-10T02:29:23.802Z,17.20
2019-04-10T02:29:56.513Z,15.50
2019-04-10T02:30:30.346Z,18.82
2019-04-10T02:31:04.712Z,20.48
2019-04-10T02:31:39.087Z,19.37
2019-04-10T02:32:12.264Z,25.48
2019-04-10T02:32:47.656Z,16.00
2019-04-10T02:33:19.715Z,18.27
2019-04-10T02:33:53.628Z,17.62
2019-04-10T02:34:26.278Z,14.78
2019-04-10T02:34:59.166Z,14.65
2019-04-10T02:35:31.705Z,14.30
2019-04-10T02:36:05.467Z,15.20
2019-04-10T02:36:38.697Z,15.75
2019-04-10T02:37:12.806Z,14.50
2019-04-10T02:37:49.363Z,16.07
2019-04-10T02:38:35.968Z,17.12
2019-04-10T02:39:06.666Z,17.85
2019-04-10T02:39:36.217Z,14.05
2019-04-10T02:40:05.634Z,15.72
2019-04-10T02:40:39.182Z,16.52
2019-04-10T02:41:14.012Z,15.75
2019-04-10T02:41:46.679Z,15.98
2019-04-10T02:42:20.720Z,18.30
2019-04-10T02:42:54.685Z,15.68
2019-04-10T02:43:29.032Z,17.60
2019-04-10T02:44:02.968Z,15.05
2019-04-10T02:44:37.592Z,15.98
2019-04-10T02:45:12.299Z,20.17
2019-04-10T02:45:44.986Z,17.10
2019-04-10T02:46:17.634Z,18.23
2019-04-10T02:46:51.750Z,18.67
2019-04-10T02:47:24.455Z,17.32
2019-04-10T02:47:57.021Z,23.90
2019-04-10T02:48:29.695Z,18.77
2019-04-10T02:49:03.816Z,16.77
2019-04-10T02:49:36.669Z,22.62
2019-04-10T02:50:12.522Z,19.40
2019-04-10T02:50:46.016Z,13.93
2019-04-10T02:51:19.993Z,22.45
2019-04-10T02:51:52.711Z,18.07
2019-04-10T02:52:25.294Z,20.62
2019-04-10T02:52:59.227Z,14.70
2019-04-10T02:53:31.829Z,22.93
2019-04-10T02:54:04.980Z,17.52
2019-04-10T02:54:39.263Z,15.48
2019-04-10T02:55:12.270Z,19.20
2019-04-10T02:55:44.802Z,15.63
2019-04-10T02:56:18.012Z,19.15
2019-04-10T02:56:50.743Z,13.75
2019-04-10T02:57:23.285Z,14.87
2019-04-10T02:57:56.436Z,16.80
2019-04-10T02:58:30.139Z,17.92
2019-04-10T02:59:02.900Z,20.15
2019-04-10T02:59:37.502Z,21.42
2019-04-10T03:00:10.905Z,18.65
2019-04-10T03:00:46.268Z,17.00
2019-04-10T03:01:19.884Z,17.77
2019-04-10T03:01:52.794Z,17.15
2019-04-10T03:02:26.595Z,19.00
2019-04-10T03:02:59.545Z,18.77
2019-04-10T03:03:34.304Z,17.12
2019-04-10T03:04:09.034Z,16.05
2019-04-10T03:04:42.506Z,14.75
2019-04-10T03:05:15.949Z,16.42
2019-04-10T03:05:50.829Z,17.15
2019-04-10T03:06:24.088Z,17.40
2019-04-10T03:06:57.618Z,17.87
2019-04-10T03:07:31.940Z,15.93
2019-04-10T03:08:05.422Z,17.92
2019-04-10T03:08:57.702Z,18.48
2019-04-10T03:09:30.169Z,15.80
2019-04-10T03:10:00.406Z,19.52
2019-04-10T03:10:30.053Z,15.75
2019-04-10T03:11:03.597Z,15.32
2019-04-10T03:11:32.938Z,19.85
2019-04-10T03:12:06.291Z,19.73
2019-04-10T03:12:40.971Z,15.83
2019-04-10T03:13:13.788Z,16.02
2019-04-10T03:13:47.292Z,13.53
2019-04-10T03:14:21.173Z,15.70
2019-04-10T03:14:54.936Z,20.62
2019-04-10T03:15:29.525Z,18.30
2019-04-10T03:16:03.117Z,19.27
2019-04-10T03:16:35.765Z,15.38
2019-04-10T03:17:08.320Z,21.52
2019-04-10T03:17:41.976Z,16.30
2019-04-10T03:18:14.980Z,17.32
2019-04-10T03:18:47.513Z,14.33
2019-04-10T03:19:21.247Z,17.50
2019-04-10T03:19:53.969Z,15.72
2019-04-10T03:20:26.658Z,17.00
2019-04-10T03:20:59.908Z,14.40
2019-04-10T03:21:33.325Z,18.87
2019-04-10T03:22:07.890Z,19.60
2019-04-10T03:22:41.055Z,16.60
2019-04-10T03:23:13.927Z,20.97
2019-04-10T03:23:47.349Z,17.05
2019-04-10T03:24:21.200Z,13.75
2019-04-10T03:24:54.746Z,18.02
2019-04-10T03:25:28.858Z,18.15
2019-04-10T03:26:01.556Z,14.87
2019-04-10T03:26:34.768Z,19.02
2019-04-10T03:27:07.658Z,15.65
2019-04-10T03:27:40.698Z,20.68
2019-04-10T03:28:13.322Z,18.77
2019-04-10T03:28:45.868Z,18.87
2019-04-10T03:29:18.439Z,15.63
2019-04-10T03:29:51.889Z,17.65
2019-04-10T03:30:24.741Z,17.90
2019-04-10T03:31:00.026Z,18.65
2019-04-10T03:31:34.219Z,19.75
2019-04-10T03:32:28.580Z,17.40
2019-04-10T03:33:21.781Z,17.17
2019-04-10T03:34:16.770Z,16.10
2019-04-10T03:34:51.273Z,24.43
2019-04-10T03:35:30.549Z,22.07
2019-04-10T03:36:03.919Z,20.85
2019-04-10T03:36:38.169Z,20.95
2019-04-10T03:37:11.740Z,19.90
2019-04-10T03:37:44.713Z,17.30
2019-04-10T03:38:18.166Z,18.23
2019-04-10T03:38:58.563Z,18.32
2019-04-10T03:39:25.767Z,12.98
2019-04-10T03:39:59.318Z,19.20
2019-04-10T03:40:32.302Z,18.77
2019-04-10T03:41:05.017Z,18.20
2019-04-10T03:41:40.024Z,15.35
2019-04-10T03:42:12.745Z,15.23
2019-04-10T03:42:45.490Z,17.12
2019-04-10T03:43:18.119Z,29.02
2019-04-10T03:43:52.111Z,22.73
2019-04-10T03:44:25.021Z,27.70
2019-04-10T03:44:57.695Z,15.75
2019-04-10T03:45:30.781Z,20.23
2019-04-10T03:46:03.405Z,17.70
2019-04-10T03:46:38.387Z,20.75
2019-04-10T03:47:11.295Z,24.05
2019-04-10T03:47:44.231Z,25.02
2019-04-10T03:48:17.326Z,21.30
2019-04-10T03:48:50.184Z,20.25
2019-04-10T03:49:22.728Z,22.05
2019-04-10T03:49:55.396Z,19.20
2019-04-10T03:50:27.934Z,21.07
2019-04-10T03:51:01.259Z,19.45
2019-04-10T03:51:34.075Z,20.05
2019-04-10T03:52:07.256Z,17.37
2019-04-10T03:52:41.004Z,20.68
2019-04-10T03:53:14.022Z,20.68
2019-04-10T03:53:46.690Z,17.98
2019-04-10T03:54:20.713Z,18.57
2019-04-10T03:54:54.515Z,18.10
2019-04-10T03:55:27.155Z,21.45
2019-04-10T03:55:59.680Z,21.77
2019-04-10T03:56:32.551Z,18.73
2019-04-10T03:57:05.082Z,20.15
2019-04-10T03:57:38.522Z,18.87
2019-04-10T03:58:11.367Z,23.05
2019-04-10T03:58:44.212Z,21.25
2019-04-10T03:59:16.742Z,24.82
2019-04-10T03:59:49.740Z,15.85
2019-04-10T04:00:23.755Z,16.52
2019-04-10T04:00:56.519Z,29.70
2019-04-10T04:01:29.182Z,23.62
2019-04-10T04:02:01.763Z,23.90
2019-04-10T04:02:34.308Z,25.25
2019-04-10T04:03:08.490Z,21.70
2019-04-10T04:03:41.129Z,21.25
2019-04-10T04:04:14.044Z,24.35
2019-04-10T04:04:47.966Z,30.08
2019-04-10T04:05:22.343Z,21.42
2019-04-10T04:05:55.320Z,33.20
2019-04-10T04:06:27.942Z,22.98
2019-04-10T04:07:00.506Z,30.68
2019-04-10T04:07:33.054Z,34.78
2019-04-10T04:08:05.632Z,29.30
2019-04-10T04:08:39.519Z,32.13
2019-04-10T04:09:13.520Z,37.17
2019-04-10T04:09:46.440Z,29.87
2019-04-10T04:10:20.404Z,28.25
2019-04-10T04:10:53.487Z,31.15
2019-04-10T04:11:26.025Z,37.15
2019-04-10T04:11:59.035Z,37.03
2019-04-10T04:12:31.576Z,30.82
2019-04-10T04:13:05.767Z,26.95
2019-04-10T04:13:39.687Z,28.17
2019-04-10T04:14:12.402Z,27.42
2019-04-10T04:14:44.991Z,31.48
2019-04-10T04:15:17.763Z,26.60
2019-04-10T04:15:50.696Z,32.53
2019-04-10T04:16:23.231Z,28.87
2019-04-10T04:16:55.782Z,30.77
2019-04-10T04:17:28.372Z,33.05
2019-04-10T04:18:01.194Z,31.00
2019-04-10T04:18:33.778Z,31.12
2019-04-10T04:19:06.319Z,30.17
2019-04-10T04:19:39.941Z,28.83
2019-04-10T04:20:12.883Z,27.02
2019-04-10T04:20:45.800Z,33.63
2019-04-10T04:21:19.549Z,30.23
2019-04-10T04:21:52.380Z,26.75
2019-04-10T04:22:25.280Z,26.95
2019-04-10T04:22:57.826Z,25.02
2019-04-10T04:23:30.734Z,35.58
2019-04-10T04:24:03.651Z,28.55
2019-04-10T04:24:36.255Z,28.10
2019-04-10T04:25:08.795Z,36.50
2019-04-10T04:25:41.399Z,35.28
2019-04-10T04:26:14.821Z,28.05
2019-04-10T04:26:48.608Z,37.08
2019-04-10T04:27:21.630Z,32.78
2019-04-10T04:27:54.368Z,35.40
2019-04-10T04:28:27.673Z,43.10
2019-04-10T04:29:00.698Z,33.85
2019-04-10T04:29:34.501Z,31.77
2019-04-10T04:30:08.463Z,38.25
2019-04-10T04:30:41.958Z,40.00
2019-04-10T04:31:15.971Z,34.08
2019-04-10T04:31:48.992Z,37.83
2019-04-10T04:32:21.788Z,37.73
2019-04-10T04:32:54.380Z,37.88
2019-04-10T04:33:27.653Z,38.25
2019-04-10T04:34:01.913Z,35.85
2019-04-10T04:34:34.719Z,44.53
2019-04-10T04:35:15.384Z,30.72
2019-04-10T04:35:48.805Z,35.00
2019-04-10T04:36:24.592Z,33.33
2019-04-10T04:36:58.118Z,32.25
2019-04-10T04:37:31.197Z,33.30
2019-04-10T04:38:07.083Z,29.67
2019-04-10T04:38:41.022Z,34.20
2019-04-10T04:39:21.560Z,42.53
2019-04-10T04:39:48.793Z,31.17
2019-04-10T04:40:21.755Z,33.40
2019-04-10T04:40:54.877Z,32.70
2019-04-10T04:41:27.806Z,34.38
2019-04-10T04:42:00.856Z,34.15
2019-04-10T04:42:35.559Z,46.77
2019-04-10T04:43:08.589Z,37.20
2019-04-10T04:43:44.803Z,34.40
2019-04-10T04:44:18.076Z,38.85
2019-04-10T04:44:52.091Z,39.55
2019-04-10T04:45:25.688Z,33.38
2019-04-10T04:45:59.189Z,33.42
2019-04-10T04:46:32.411Z,36.17
2019-04-10T04:47:06.202Z,33.13
2019-04-10T04:47:39.157Z,32.03
2019-04-10T04:48:12.089Z,37.42
2019-04-10T04:48:45.366Z,38.05
2019-04-10T04:49:21.476Z,35.68
2019-04-10T04:49:54.632Z,36.13
2019-04-10T04:50:29.191Z,43.65
2019-04-10T04:51:03.159Z,34.23
2019-04-10T04:51:37.771Z,34.05
2019-04-10T04:52:12.731Z,35.78
2019-04-10T04:52:45.589Z,36.45
2019-04-10T04:53:19.589Z,34.30
2019-04-10T04:53:52.399Z,29.23
2019-04-10T04:54:25.566Z,36.23
2019-04-10T04:54:58.276Z,34.78
2019-04-10T04:55:31.040Z,25.90
2019-04-10T04:56:04.101Z,33.65
2019-04-10T04:56:36.846Z,31.37
2019-04-10T04:57:09.427Z,35.20
2019-04-10T04:57:42.265Z,52.53
2019-04-10T04:58:18.021Z,44.75
2019-04-10T04:58:51.718Z,40.00
2019-04-10T04:59:26.713Z,31.95
2019-04-10T04:59:59.782Z,38.40
2019-04-10T05:00:32.302Z,44.85
2019-04-10T05:01:04.843Z,39.90
2019-04-10T05:01:38.377Z,37.48
2019-04-10T05:02:12.013Z,40.25
2019-04-10T05:02:44.832Z,35.00
2019-04-10T05:03:18.357Z,29.82
2019-04-10T05:03:52.630Z,34.15
2019-04-10T05:04:25.174Z,30.97
2019-04-10T05:04:58.156Z,33.35
2019-04-10T05:05:33.394Z,31.33
2019-04-10T05:06:06.155Z,31.27
2019-04-10T05:06:39.626Z,28.07
2019-04-10T05:07:13.545Z,28.73
2019-04-10T05:07:58.489Z,30.32
2019-04-10T05:08:21.820Z,35.10
2019-04-10T05:08:54.820Z,33.92
2019-04-10T05:09:34.365Z,32.42
2019-04-10T05:10:02.311Z,25.15
2019-04-10T05:10:35.683Z,32.23
2019-04-10T05:11:09.770Z,28.02
2019-04-10T05:11:42.733Z,31.50
2019-04-10T05:12:16.401Z,31.90
2019-04-10T05:12:49.519Z,30.65
2019-04-10T05:13:22.259Z,29.20
2019-04-10T05:13:55.825Z,28.30
2019-04-10T05:14:29.486Z,37.85
2019-04-10T05:15:02.624Z,28.90
2019-04-10T05:15:35.279Z,30.75
2019-04-10T05:16:08.220Z,30.23
2019-04-10T05:16:41.661Z,26.55
2019-04-10T05:17:16.685Z,36.15
2019-04-10T05:17:49.348Z,34.80
2019-04-10T05:18:21.942Z,26.23
2019-04-10T05:18:54.539Z,26.48
2019-04-10T05:19:27.562Z,25.70
2019-04-10T05:20:00.835Z,31.55
2019-04-10T05:20:44.125Z,35.45
2019-04-10T05:21:08.510Z,34.10
2019-04-10T05:21:41.476Z,26.05
2019-04-10T05:22:14.521Z,28.85
2019-04-10T05:22:47.067Z,41.90
2019-04-10T05:23:21.074Z,28.83
2019-04-10T05:23:53.906Z,26.12
2019-04-10T05:24:27.917Z,31.75
2019-04-10T05:25:00.718Z,25.55
2019-04-10T05:25:34.407Z,22.90
2019-04-10T05:26:08.101Z,24.07
2019-04-10T05:26:40.759Z,28.80
2019-04-10T05:27:14.126Z,33.13
2019-04-10T05:27:47.437Z,30.82
2019-04-10T05:28:20.445Z,25.17
2019-04-10T05:28:53.139Z,26.02
2019-04-10T05:29:29.302Z,27.52
2019-04-10T05:30:02.310Z,28.75
2019-04-10T05:30:35.713Z,31.02
2019-04-10T05:31:08.678Z,24.52
2019-04-10T05:31:42.596Z,24.32
2019-04-10T05:32:15.883Z,22.27
2019-04-10T05:32:49.354Z,26.75
2019-04-10T05:33:22.575Z,26.45
2019-04-10T05:33:55.348Z,22.50
2019-04-10T05:34:27.903Z,21.10
2019-04-10T05:35:01.176Z,21.00
2019-04-10T05:35:36.409Z,28.50
2019-04-10T05:36:09.386Z,21.40
2019-04-10T05:36:42.064Z,27.35
2019-04-10T05:37:15.630Z,24.30
2019-04-10T05:37:48.791Z,27.52
2019-04-10T05:38:21.453Z,23.02
2019-04-10T05:38:54.453Z,24.37
2019-04-10T05:39:39.140Z,23.83
2019-04-10T05:40:01.611Z,24.65
2019-04-10T05:40:34.727Z,31.25
2019-04-10T05:41:07.393Z,27.65
2019-04-10T05:41:40.000Z,28.73
2019-04-10T05:42:12.776Z,33.23
2019-04-10T05:42:45.373Z,24.92
2019-04-10T05:43:18.198Z,27.73
2019-04-10T05:43:50.932Z,23.02
2019-04-10T05:44:23.694Z,27.93
2019-04-10T05:44:56.583Z,30.05
2019-04-10T05:45:29.634Z,28.92
2019-04-10T05:46:02.856Z,33.25
2019-04-10T05:46:36.692Z,24.35
2019-04-10T05:47:10.342Z,27.60
2019-04-10T05:47:42.966Z,28.55
2019-04-10T05:48:15.516Z,25.95
2019-04-10T05:48:49.045Z,27.77
2019-04-10T05:49:22.521Z,30.30
2019-04-10T05:49:55.761Z,26.50
2019-04-10T05:50:28.263Z,40.52
2019-04-10T05:51:04.313Z,36.85
2019-04-10T05:51:35.481Z,29.85
2019-04-10T05:52:08.257Z,28.70
2019-04-10T05:52:41.309Z,27.52
2019-04-10T05:53:13.842Z,31.70
2019-04-10T05:53:47.075Z,29.85
2019-04-10T05:54:21.010Z,28.30
2019-04-10T05:54:53.814Z,27.15
2019-04-10T05:55:26.666Z,30.90
2019-04-10T05:55:59.427Z,37.25
2019-04-10T05:56:31.943Z,29.72
2019-04-10T05:57:04.482Z,28.02
2019-04-10T05:57:37.155Z,28.47
2019-04-10T05:58:09.712Z,24.57
2019-04-10T05:58:44.864Z,24.30
2019-04-10T05:59:17.453Z,30.90
2019-04-10T05:59:50.206Z,26.82
2019-04-10T06:00:23.078Z,30.02
2019-04-10T06:00:57.030Z,29.95
2019-04-10T06:01:35.069Z,23.27
2019-04-10T06:02:05.088Z,27.73
2019-04-10T06:02:39.707Z,24.80
2019-04-10T06:03:12.449Z,22.52
2019-04-10T06:03:45.750Z,29.37
2019-04-10T06:04:19.650Z,31.17
2019-04-10T06:04:53.858Z,24.82
2019-04-10T06:05:27.268Z,22.48
2019-04-10T06:06:01.163Z,26.12
2019-04-10T06:06:34.612Z,27.05
2019-04-10T06:07:07.294Z,31.95
2019-04-10T06:07:39.830Z,25.10
2019-04-10T06:08:12.390Z,30.02
2019-04-10T06:08:44.931Z,25.52
2019-04-10T06:09:17.516Z,26.75
2019-04-10T06:09:55.891Z,31.87
2019-04-10T06:10:24.658Z,28.98
2019-04-10T06:10:58.211Z,32.70
2019-04-10T06:11:31.064Z,26.20
2019-04-10T06:12:04.173Z,30.75
2019-04-10T06:12:38.286Z,29.27
2019-04-10T06:13:10.985Z,21.90
2019-04-10T06:13:45.064Z,27.65
2019-04-10T06:14:17.862Z,23.42
2019-04-10T06:14:50.499Z,31.05
2019-04-10T06:15:23.270Z,28.77
2019-04-10T06:15:56.096Z,31.57
2019-04-10T06:16:28.631Z,22.05
2019-04-10T06:17:04.100Z,22.25
2019-04-10T06:17:36.697Z,30.45
2019-04-10T06:18:09.532Z,23.02
2019-04-10T06:18:43.065Z,28.50
2019-04-10T06:19:15.888Z,26.68
2019-04-10T06:19:48.940Z,27.60
2019-04-10T06:20:21.558Z,24.82
2019-04-10T06:20:54.602Z,23.00
2019-04-10T06:21:28.479Z,28.55
2019-04-10T06:22:01.636Z,26.87
2019-04-10T06:22:34.783Z,26.50
2019-04-10T06:23:07.476Z,29.35
2019-04-10T06:23:41.313Z,25.52
2019-04-10T06:24:14.277Z,31.27
2019-04-10T06:24:46.842Z,28.38
2019-04-10T06:25:21.421Z,29.15
2019-04-10T06:25:54.126Z,31.33
2019-04-10T06:26:28.039Z,25.92
2019-04-10T06:27:01.746Z,26.95
2019-04-10T06:27:34.713Z,31.50
2019-04-10T06:28:07.416Z,27.52
2019-04-10T06:28:40.103Z,25.52
2019-04-10T06:29:12.889Z,31.35
2019-04-10T06:29:46.279Z,23.35
2019-04-10T06:30:19.700Z,32.25
2019-04-10T06:30:52.806Z,28.87
2019-04-10T06:31:25.356Z,32.05
2019-04-10T06:31:58.239Z,24.45
2019-04-10T06:32:31.681Z,33.42
2019-04-10T06:33:04.716Z,26.65
2019-04-10T06:33:37.259Z,27.52
2019-04-10T06:34:11.173Z,34.13
2019-04-10T06:34:44.475Z,25.27
2019-04-10T06:35:17.010Z,30.65
2019-04-10T06:35:50.896Z,29.15
2019-04-10T06:36:23.517Z,26.55
2019-04-10T06:36:56.395Z,24.52
2019-04-10T06:37:28.943Z,25.65
2019-04-10T06:38:02.349Z,28.30
2019-04-10T06:38:35.101Z,23.98
2019-04-10T06:39:08.763Z,27.80
2019-04-10T06:39:43.399Z,31.73
2019-04-10T06:40:19.659Z,28.30
2019-04-10T06:40:50.947Z,28.52
2019-04-10T06:41:24.349Z,27.22
2019-04-10T06:41:57.968Z,25.27
2019-04-10T06:42:38.825Z,28.05
2019-04-10T06:43:05.233Z,25.48
2019-04-10T06:43:39.248Z,27.13
2019-04-10T06:44:11.908Z,29.02
2019-04-10T06:44:45.985Z,32.40
2019-04-10T06:45:19.752Z,32.03
2019-04-10T06:45:52.500Z,31.10
2019-04-10T06:46:25.309Z,30.27
2019-04-10T06:46:58.260Z,23.80
2019-04-10T06:47:30.893Z,36.83
2019-04-10T06:48:03.774Z,26.68
2019-04-10T06:48:36.322Z,34.05
2019-04-10T06:49:09.302Z,46.65
2019-04-10T06:49:42.020Z,63.00
2019-04-10T06:50:14.867Z,68.90
2019-04-10T06:50:47.615Z,64.70
2019-04-10T06:51:21.307Z,51.40
2019-04-10T06:51:54.231Z,49.50
2019-04-10T06:52:27.306Z,34.25
2019-04-10T06:52:59.979Z,35.30
2019-04-10T06:53:33.208Z,33.65
2019-04-10T06:54:10.840Z,32.00
2019-04-10T06:54:40.720Z,41.02
2019-04-10T06:55:13.761Z,31.17
2019-04-10T06:55:46.873Z,26.77
2019-04-10T06:56:20.834Z,46.20
2019-04-10T06:56:54.460Z,28.77
2019-04-10T06:57:27.222Z,27.55
2019-04-10T06:58:00.867Z,28.02
2019-04-10T06:58:33.986Z,56.98
2019-04-10T06:59:06.742Z,49.18
2019-04-10T06:59:39.879Z,44.98
2019-04-10T07:00:16.498Z,62.43
2019-04-10T07:00:52.166Z,103.75
2019-04-10T07:01:24.506Z,103.07
2019-04-10T07:02:11.446Z,65.72
2019-04-10T07:02:33.878Z,39.03
2019-04-10T07:03:06.895Z,33.15
2019-04-10T07:03:52.718Z,22.93
2019-04-10T07:04:14.007Z,111.85
2019-04-10T07:04:53.294Z,173.22
2019-04-10T07:05:21.890Z,203.02
2019-04-10T07:06:07.268Z,151.35
2019-04-10T07:06:44.655Z,110.28
2019-04-10T07:07:09.429Z,66.72
2019-04-10T07:07:47.422Z,60.03
2019-04-10T07:08:16.430Z,56.40
2019-04-10T07:08:48.876Z,49.33
2019-04-10T07:09:24.729Z,38.73
2019-04-10T07:09:57.145Z,41.68
2019-04-10T07:10:40.825Z,35.23
2019-04-10T07:11:09.039Z,29.98
2019-04-10T07:11:38.999Z,24.60